sensor_id;sensor_type;location;lat;lon;timestamp;pressure;altitude;pressure_sealevel;temperature;humidity
55456;BME280;63021;52.836;6.376;2024-03-25T00:00:10;100612.16;;;6.11;nan
55456;BME280;63021;52.836;6.376;2024-03-25T00:02:40;100655.94;;;6.24;nan
55456;BME280;63021;52.836;6.376;2024-03-25T00:05:06;100655.81;;;6.26;nan
55456;BME280;63021;52.836;6.376;2024-03-25T00:07:37;100646.34;;;6.23;nan
55456;BME280;63021;52.836;6.376;2024-03-25T00:10:04;100654.38;;;6.22;nan
55456;BME280;63021;52.836;6.376;2024-03-25T00:12:31;100658.72;;;6.12;nan
55456;BME280;63021;52.836;6.376;2024-03-25T00:15:00;100644.56;;;6.13;nan
55456;BME280;63021;52.836;6.376;2024-03-25T00:17:25;100655.00;;;6.14;nan
55456;BME280;63021;52.836;6.376;2024-03-25T00:19:51;100647.22;;;6.13;nan
55456;BME280;63021;52.836;6.376;2024-03-25T00:22:20;100654.53;;;6.09;nan
55456;BME280;63021;52.836;6.376;2024-03-25T00:24:47;100664.63;;;6.04;nan
55456;BME280;63021;52.836;6.376;2024-03-25T00:27:13;100653.13;;;6.05;nan
55456;BME280;63021;52.836;6.376;2024-03-25T00:29:39;100647.34;;;6.00;nan
55456;BME280;63021;52.836;6.376;2024-03-25T00:32:05;100655.16;;;6.01;nan
55456;BME280;63021;52.836;6.376;2024-03-25T00:34:31;100652.84;;;5.97;nan
55456;BME280;63021;52.836;6.376;2024-03-25T00:36:57;100642.53;;;5.94;nan
55456;BME280;63021;52.836;6.376;2024-03-25T00:39:22;100647.44;;;5.87;nan
55456;BME280;63021;52.836;6.376;2024-03-25T00:41:48;100658.63;;;5.90;nan
55456;BME280;63021;52.836;6.376;2024-03-25T00:44:13;100652.84;;;5.85;nan
55456;BME280;63021;52.836;6.376;2024-03-25T00:46:39;100677.13;;;5.79;nan
55456;BME280;63021;52.836;6.376;2024-03-25T00:49:12;100652.03;;;5.73;nan
55456;BME280;63021;52.836;6.376;2024-03-25T00:51:38;100654.78;;;5.72;nan
55456;BME280;63021;52.836;6.376;2024-03-25T00:54:03;100656.69;;;5.70;nan
55456;BME280;63021;52.836;6.376;2024-03-25T00:56:30;100663.41;;;5.74;nan
55456;BME280;63021;52.836;6.376;2024-03-25T00:58:56;100657.44;;;5.72;nan
55456;BME280;63021;52.836;6.376;2024-03-25T01:01:27;100661.38;;;5.66;nan
55456;BME280;63021;52.836;6.376;2024-03-25T01:03:52;100670.03;;;5.68;nan
55456;BME280;63021;52.836;6.376;2024-03-25T01:06:18;100664.97;;;5.65;nan
55456;BME280;63021;52.836;6.376;2024-03-25T01:08:43;100669.53;;;5.52;nan
55456;BME280;63021;52.836;6.376;2024-03-25T01:11:09;100663.53;;;5.61;nan
55456;BME280;63021;52.836;6.376;2024-03-25T01:13:34;100665.94;;;5.64;nan
55456;BME280;63021;52.836;6.376;2024-03-25T01:15:59;100658.84;;;5.53;nan
55456;BME280;63021;52.836;6.376;2024-03-25T01:18:25;100661.13;;;5.58;nan
55456;BME280;63021;52.836;6.376;2024-03-25T01:20:51;100654.91;;;5.59;nan
55456;BME280;63021;52.836;6.376;2024-03-25T01:23:16;100642.91;;;5.55;nan
55456;BME280;63021;52.836;6.376;2024-03-25T01:25:41;100648.75;;;5.59;nan
55456;BME280;63021;52.836;6.376;2024-03-25T01:28:07;100660.44;;;5.56;nan
55456;BME280;63021;52.836;6.376;2024-03-25T01:30:32;100668.44;;;5.54;nan
55456;BME280;63021;52.836;6.376;2024-03-25T01:33:00;100660.28;;;5.46;nan
55456;BME280;63021;52.836;6.376;2024-03-25T01:35:26;100657.16;;;5.41;nan
55456;BME280;63021;52.836;6.376;2024-03-25T01:37:52;100676.25;;;5.45;nan
55456;BME280;63021;52.836;6.376;2024-03-25T01:40:18;100674.44;;;5.45;nan
55456;BME280;63021;52.836;6.376;2024-03-25T01:42:43;100648.75;;;5.36;nan
55456;BME280;63021;52.836;6.376;2024-03-25T01:45:09;100634.94;;;5.32;nan
55456;BME280;63021;52.836;6.376;2024-03-25T01:47:35;100653.81;;;5.39;nan
55456;BME280;63021;52.836;6.376;2024-03-25T01:50:01;100663.50;;;5.38;nan
55456;BME280;63021;52.836;6.376;2024-03-25T01:52:29;100649.44;;;5.27;nan
55456;BME280;63021;52.836;6.376;2024-03-25T01:54:54;100671.53;;;5.37;nan
55456;BME280;63021;52.836;6.376;2024-03-25T01:57:21;100677.91;;;5.34;nan
55456;BME280;63021;52.836;6.376;2024-03-25T01:59:47;100668.44;;;5.32;nan
55456;BME280;63021;52.836;6.376;2024-03-25T02:02:13;100667.94;;;5.27;nan
55456;BME280;63021;52.836;6.376;2024-03-25T02:04:42;100675.97;;;5.25;nan
55456;BME280;63021;52.836;6.376;2024-03-25T02:07:08;100684.84;;;5.24;nan
55456;BME280;63021;52.836;6.376;2024-03-25T02:09:35;100686.75;;;5.22;nan
55456;BME280;63021;52.836;6.376;2024-03-25T02:12:01;100696.22;;;5.13;nan
55456;BME280;63021;52.836;6.376;2024-03-25T02:14:27;100677.13;;;5.10;nan
55456;BME280;63021;52.836;6.376;2024-03-25T02:16:52;100684.78;;;5.13;nan
55456;BME280;63021;52.836;6.376;2024-03-25T02:19:18;100692.94;;;5.10;nan
55456;BME280;63021;52.836;6.376;2024-03-25T02:21:43;100695.81;;;5.07;nan
55456;BME280;63021;52.836;6.376;2024-03-25T02:24:10;100698.69;;;5.03;nan
55456;BME280;63021;52.836;6.376;2024-03-25T02:26:39;100673.97;;;4.93;nan
55456;BME280;63021;52.836;6.376;2024-03-25T02:29:05;100683.81;;;5.02;nan
55456;BME280;63021;52.836;6.376;2024-03-25T02:31:30;100675.91;;;5.02;nan
55456;BME280;63021;52.836;6.376;2024-03-25T02:33:59;100676.88;;;5.01;nan
55456;BME280;63021;52.836;6.376;2024-03-25T02:36:24;100676.88;;;5.01;nan
55456;BME280;63021;52.836;6.376;2024-03-25T02:38:50;100683.81;;;5.02;nan
55456;BME280;63021;52.836;6.376;2024-03-25T02:41:16;100666.53;;;4.98;nan
55456;BME280;63021;52.836;6.376;2024-03-25T02:43:42;100694.38;;;5.02;nan
55456;BME280;63021;52.836;6.376;2024-03-25T02:46:08;100666.75;;;4.95;nan
55456;BME280;63021;52.836;6.376;2024-03-25T02:48:33;100688.84;;;5.06;nan
55456;BME280;63021;52.836;6.376;2024-03-25T02:50:59;100685.28;;;5.07;nan
55456;BME280;63021;52.836;6.376;2024-03-25T02:53:24;100686.97;;;5.08;nan
55456;BME280;63021;52.836;6.376;2024-03-25T02:55:49;100695.59;;;5.10;nan
55456;BME280;63021;52.836;6.376;2024-03-25T02:58:15;100682.28;;;5.11;nan
55456;BME280;63021;52.836;6.376;2024-03-25T03:00:40;100684.72;;;5.14;nan
55456;BME280;63021;52.836;6.376;2024-03-25T03:03:06;100696.94;;;5.15;nan
55456;BME280;63021;52.836;6.376;2024-03-25T03:05:31;100686.59;;;5.12;nan
55456;BME280;63021;52.836;6.376;2024-03-25T03:08:01;100698.72;;;5.15;nan
55456;BME280;63021;52.836;6.376;2024-03-25T03:10:26;100678.69;;;5.12;nan
55456;BME280;63021;52.836;6.376;2024-03-25T03:12:51;100662.69;;;5.02;nan
55456;BME280;63021;52.836;6.376;2024-03-25T03:15:17;100707.13;;;5.20;nan
55456;BME280;63021;52.836;6.376;2024-03-25T03:17:42;100696.56;;;5.20;nan
55456;BME280;63021;52.836;6.376;2024-03-25T03:20:08;100697.56;;;5.19;nan
55456;BME280;63021;52.836;6.376;2024-03-25T03:22:35;100689.25;;;5.12;nan
55456;BME280;63021;52.836;6.376;2024-03-25T03:25:00;100722.13;;;5.19;nan
55456;BME280;63021;52.836;6.376;2024-03-25T03:27:29;100698.50;;;5.18;nan
55456;BME280;63021;52.836;6.376;2024-03-25T03:29:58;100720.69;;;5.15;nan
55456;BME280;63021;52.836;6.376;2024-03-25T03:32:23;100685.50;;;5.03;nan
55456;BME280;63021;52.836;6.376;2024-03-25T03:34:49;100665.94;;;4.95;nan
55456;BME280;63021;52.836;6.376;2024-03-25T03:37:14;100699.81;;;5.12;nan
55456;BME280;63021;52.836;6.376;2024-03-25T03:39:39;100703.06;;;5.16;nan
55456;BME280;63021;52.836;6.376;2024-03-25T03:42:05;100698.00;;;5.13;nan
55456;BME280;63021;52.836;6.376;2024-03-25T03:44:30;100703.78;;;5.18;nan
55456;BME280;63021;52.836;6.376;2024-03-25T03:46:56;100693.81;;;5.10;nan
55456;BME280;63021;52.836;6.376;2024-03-25T03:49:21;100691.16;;;5.10;nan
55456;BME280;63021;52.836;6.376;2024-03-25T03:51:47;100697.28;;;5.11;nan
55456;BME280;63021;52.836;6.376;2024-03-25T03:54:12;100696.44;;;5.10;nan
55456;BME280;63021;52.836;6.376;2024-03-25T03:56:37;100696.56;;;5.09;nan
55456;BME280;63021;52.836;6.376;2024-03-25T03:59:06;100709.75;;;5.09;nan
55456;BME280;63021;52.836;6.376;2024-03-25T04:01:32;100703.50;;;5.10;nan
55456;BME280;63021;52.836;6.376;2024-03-25T04:03:58;100710.25;;;5.14;nan
55456;BME280;63021;52.836;6.376;2024-03-25T04:06:23;100714.69;;;5.13;nan
55456;BME280;63021;52.836;6.376;2024-03-25T04:08:49;100719.09;;;5.13;nan
55456;BME280;63021;52.836;6.376;2024-03-25T04:11:14;100717.44;;;5.12;nan
55456;BME280;63021;52.836;6.376;2024-03-25T04:13:40;100713.56;;;5.05;nan
55456;BME280;63021;52.836;6.376;2024-03-25T04:16:06;100706.72;;;5.02;nan
55456;BME280;63021;52.836;6.376;2024-03-25T04:18:33;100717.16;;;5.03;nan
55456;BME280;63021;52.836;6.376;2024-03-25T04:20:59;100725.78;;;5.06;nan
55456;BME280;63021;52.836;6.376;2024-03-25T04:23:25;100731.75;;;4.96;nan
55456;BME280;63021;52.836;6.376;2024-03-25T04:25:51;100719.91;;;5.02;nan
55456;BME280;63021;52.836;6.376;2024-03-25T04:28:17;100720.75;;;5.02;nan
55456;BME280;63021;52.836;6.376;2024-03-25T04:30:42;100702.47;;;4.88;nan
55456;BME280;63021;52.836;6.376;2024-03-25T04:33:08;100715.09;;;4.96;nan
55456;BME280;63021;52.836;6.376;2024-03-25T04:35:33;100718.94;;;4.92;nan
55456;BME280;63021;52.836;6.376;2024-03-25T04:37:59;100713.88;;;4.89;nan
55456;BME280;63021;52.836;6.376;2024-03-25T04:40:24;100733.41;;;4.86;nan
55456;BME280;63021;52.836;6.376;2024-03-25T04:42:50;100739.41;;;4.88;nan
55456;BME280;63021;52.836;6.376;2024-03-25T04:45:15;100724.63;;;4.85;nan
55456;BME280;63021;52.836;6.376;2024-03-25T04:47:41;100714.25;;;4.71;nan
55456;BME280;63021;52.836;6.376;2024-03-25T04:50:07;100731.22;;;4.80;nan
55456;BME280;63021;52.836;6.376;2024-03-25T04:52:33;100727.94;;;4.76;nan
55456;BME280;63021;52.836;6.376;2024-03-25T04:54:58;100750.13;;;4.74;nan
55456;BME280;63021;52.836;6.376;2024-03-25T04:57:23;100721.97;;;4.74;nan
55456;BME280;63021;52.836;6.376;2024-03-25T04:59:49;100712.81;;;4.67;nan
55456;BME280;63021;52.836;6.376;2024-03-25T05:02:15;100706.41;;;4.58;nan
55456;BME280;63021;52.836;6.376;2024-03-25T05:04:40;100727.06;;;4.64;nan
55456;BME280;63021;52.836;6.376;2024-03-25T05:07:05;100715.63;;;4.53;nan
55456;BME280;63021;52.836;6.376;2024-03-25T05:09:31;100742.47;;;4.58;nan
55456;BME280;63021;52.836;6.376;2024-03-25T05:11:59;100710.78;;;4.46;nan
55456;BME280;63021;52.836;6.376;2024-03-25T05:14:25;100747.13;;;4.54;nan
55456;BME280;63021;52.836;6.376;2024-03-25T05:16:50;100722.88;;;4.49;nan
55456;BME280;63021;52.836;6.376;2024-03-25T05:19:17;100696.81;;;4.33;nan
55456;BME280;63021;52.836;6.376;2024-03-25T05:21:43;100748.31;;;4.50;nan
55456;BME280;63021;52.836;6.376;2024-03-25T05:24:09;100727.34;;;4.48;nan
55456;BME280;63021;52.836;6.376;2024-03-25T05:26:34;100726.59;;;4.46;nan
55456;BME280;63021;52.836;6.376;2024-03-25T05:29:00;100727.44;;;4.47;nan
55456;BME280;63021;52.836;6.376;2024-03-25T05:31:25;100717.88;;;4.33;nan
55456;BME280;63021;52.836;6.376;2024-03-25T05:33:51;100722.50;;;4.29;nan
55456;BME280;63021;52.836;6.376;2024-03-25T05:36:16;100733.47;;;4.36;nan
55456;BME280;63021;52.836;6.376;2024-03-25T05:38:42;100733.06;;;4.29;nan
55456;BME280;63021;52.836;6.376;2024-03-25T05:41:08;100744.03;;;4.23;nan
55456;BME280;63021;52.836;6.376;2024-03-25T05:43:34;100737.75;;;4.13;nan
55456;BME280;63021;52.836;6.376;2024-03-25T05:45:59;100734.69;;;4.06;nan
55456;BME280;63021;52.836;6.376;2024-03-25T05:48:25;100751.84;;;4.12;nan
55456;BME280;63021;52.836;6.376;2024-03-25T05:51:05;100741.66;;;4.07;nan
55456;BME280;63021;52.836;6.376;2024-03-25T05:53:31;100735.22;;;3.98;nan
55456;BME280;63021;52.836;6.376;2024-03-25T05:55:57;100733.97;;;3.91;nan
55456;BME280;63021;52.836;6.376;2024-03-25T05:58:26;100754.38;;;4.01;nan
55456;BME280;63021;52.836;6.376;2024-03-25T06:00:52;100773.81;;;3.99;nan
55456;BME280;63021;52.836;6.376;2024-03-25T06:03:21;100765.16;;;3.97;nan
55456;BME280;63021;52.836;6.376;2024-03-25T06:05:46;100767.06;;;3.95;nan
55456;BME280;63021;52.836;6.376;2024-03-25T06:08:12;100748.50;;;3.84;nan
55456;BME280;63021;52.836;6.376;2024-03-25T06:10:50;100761.91;;;3.94;nan
55456;BME280;63021;52.836;6.376;2024-03-25T06:13:16;100759.25;;;3.94;nan
55456;BME280;63021;52.836;6.376;2024-03-25T06:15:41;100758.19;;;3.96;nan
55456;BME280;63021;52.836;6.376;2024-03-25T06:18:07;100757.78;;;3.90;nan
55456;BME280;63021;52.836;6.376;2024-03-25T06:20:32;100739.84;;;3.95;nan
55456;BME280;63021;52.836;6.376;2024-03-25T06:22:58;100782.41;;;4.14;nan
55456;BME280;63021;52.836;6.376;2024-03-25T06:25:23;100782.41;;;4.27;nan
55456;BME280;63021;52.836;6.376;2024-03-25T06:27:49;100750.75;;;4.40;nan
55456;BME280;63021;52.836;6.376;2024-03-25T06:30:14;100775.16;;;4.55;nan
55456;BME280;63021;52.836;6.376;2024-03-25T06:32:58;100771.09;;;4.75;nan
55456;BME280;63021;52.836;6.376;2024-03-25T06:35:43;100746.97;;;4.93;nan
55456;BME280;63021;52.836;6.376;2024-03-25T06:38:09;100756.28;;;5.10;nan
55456;BME280;63021;52.836;6.376;2024-03-25T06:40:35;100751.44;;;5.28;nan
55456;BME280;63021;52.836;6.376;2024-03-25T06:43:00;100742.34;;;5.32;nan
55456;BME280;63021;52.836;6.376;2024-03-25T06:45:26;100746.44;;;5.47;nan
55456;BME280;63021;52.836;6.376;2024-03-25T06:47:51;100759.47;;;5.62;nan
55456;BME280;63021;52.836;6.376;2024-03-25T06:50:17;100749.63;;;5.75;nan
55456;BME280;63021;52.836;6.376;2024-03-25T06:52:42;100752.75;;;5.92;nan
55456;BME280;63021;52.836;6.376;2024-03-25T06:55:08;100750.66;;;6.08;nan
55456;BME280;63021;52.836;6.376;2024-03-25T06:57:33;100730.94;;;6.23;nan
55456;BME280;63021;52.836;6.376;2024-03-25T06:59:59;100743.03;;;6.49;nan
55456;BME280;63021;52.836;6.376;2024-03-25T07:02:24;100747.69;;;6.68;nan
55456;BME280;63021;52.836;6.376;2024-03-25T07:04:49;100728.31;;;6.79;nan
55456;BME280;63021;52.836;6.376;2024-03-25T07:07:15;100741.78;;;7.08;nan
55456;BME280;63021;52.836;6.376;2024-03-25T07:09:43;100751.94;;;7.24;nan
55456;BME280;63021;52.836;6.376;2024-03-25T07:12:10;100733.81;;;7.40;nan
55456;BME280;63021;52.836;6.376;2024-03-25T07:14:35;100745.44;;;7.70;nan
55456;BME280;63021;52.836;6.376;2024-03-25T07:17:01;100743.72;;;7.90;nan
55456;BME280;63021;52.836;6.376;2024-03-25T07:19:26;100746.59;;;8.08;nan
55456;BME280;63021;52.836;6.376;2024-03-25T07:21:52;100754.03;;;8.24;nan
55456;BME280;63021;52.836;6.376;2024-03-25T07:24:17;100754.66;;;8.38;nan
55456;BME280;63021;52.836;6.376;2024-03-25T07:26:42;100754.88;;;8.56;nan
55456;BME280;63021;52.836;6.376;2024-03-25T07:29:08;100751.28;;;8.66;nan
55456;BME280;63021;52.836;6.376;2024-03-25T07:31:33;100751.25;;;8.76;nan
55456;BME280;63021;52.836;6.376;2024-03-25T07:33:59;100761.50;;;8.81;nan
55456;BME280;63021;52.836;6.376;2024-03-25T07:36:24;100743.31;;;8.86;nan
55456;BME280;63021;52.836;6.376;2024-03-25T07:38:50;100749.06;;;8.91;nan
55456;BME280;63021;52.836;6.376;2024-03-25T07:41:15;100758.28;;;8.97;nan
55456;BME280;63021;52.836;6.376;2024-03-25T07:43:40;100769.59;;;8.99;nan
55456;BME280;63021;52.836;6.376;2024-03-25T07:46:06;100770.19;;;9.02;nan
55456;BME280;63021;52.836;6.376;2024-03-25T07:48:31;100766.28;;;9.07;nan
55456;BME280;63021;52.836;6.376;2024-03-25T07:50:59;100764.44;;;9.07;nan
55456;BME280;63021;52.836;6.376;2024-03-25T07:53:25;100766.66;;;9.12;nan
55456;BME280;63021;52.836;6.376;2024-03-25T07:55:50;100794.78;;;9.14;nan
55456;BME280;63021;52.836;6.376;2024-03-25T07:58:16;100792.53;;;9.10;nan
55456;BME280;63021;52.836;6.376;2024-03-25T08:00:41;100754.25;;;9.02;nan
55456;BME280;63021;52.836;6.376;2024-03-25T08:03:07;100772.69;;;9.14;nan
55456;BME280;63021;52.836;6.376;2024-03-25T08:05:33;100763.63;;;9.07;nan
55456;BME280;63021;52.836;6.376;2024-03-25T08:07:58;100759.56;;;9.12;nan
55456;BME280;63021;52.836;6.376;2024-03-25T08:10:24;100763.88;;;9.23;nan
55456;BME280;63021;52.836;6.376;2024-03-25T08:12:49;100779.81;;;9.33;nan
55456;BME280;63021;52.836;6.376;2024-03-25T08:15:15;100775.78;;;9.39;nan
55456;BME280;63021;52.836;6.376;2024-03-25T08:17:40;100772.00;;;9.41;nan
55456;BME280;63021;52.836;6.376;2024-03-25T08:20:09;100778.28;;;9.50;nan
55456;BME280;63021;52.836;6.376;2024-03-25T08:22:34;100775.47;;;9.51;nan
55456;BME280;63021;52.836;6.376;2024-03-25T08:25:00;100777.03;;;9.54;nan
55456;BME280;63021;52.836;6.376;2024-03-25T08:27:25;100768.75;;;9.47;nan
55456;BME280;63021;52.836;6.376;2024-03-25T08:29:51;100773.22;;;9.57;nan
55456;BME280;63021;52.836;6.376;2024-03-25T08:32:18;100747.09;;;9.42;nan
55456;BME280;63021;52.836;6.376;2024-03-25T08:34:44;100776.84;;;9.65;nan
55456;BME280;63021;52.836;6.376;2024-03-25T08:37:10;100771.66;;;9.74;nan
55456;BME280;63021;52.836;6.376;2024-03-25T08:39:36;100744.69;;;9.68;nan
55456;BME280;63021;52.836;6.376;2024-03-25T08:42:01;100760.72;;;9.86;nan
55456;BME280;63021;52.836;6.376;2024-03-25T08:44:26;100770.84;;;10.11;nan
55456;BME280;63021;52.836;6.376;2024-03-25T08:46:52;100775.69;;;10.25;nan
55456;BME280;63021;52.836;6.376;2024-03-25T08:49:18;100764.22;;;10.25;nan
55456;BME280;63021;52.836;6.376;2024-03-25T08:51:43;100770.06;;;10.38;nan
55456;BME280;63021;52.836;6.376;2024-03-25T08:54:09;100778.84;;;10.48;nan
55456;BME280;63021;52.836;6.376;2024-03-25T08:56:34;100771.63;;;10.58;nan
55456;BME280;63021;52.836;6.376;2024-03-25T08:58:59;100776.75;;;10.70;nan
55456;BME280;63021;52.836;6.376;2024-03-25T09:01:28;100767.56;;;10.82;nan
55456;BME280;63021;52.836;6.376;2024-03-25T09:03:53;100765.69;;;10.92;nan
55456;BME280;63021;52.836;6.376;2024-03-25T09:06:19;100774.59;;;11.01;nan
55456;BME280;63021;52.836;6.376;2024-03-25T09:08:44;100777.09;;;11.03;nan
55456;BME280;63021;52.836;6.376;2024-03-25T09:11:28;100749.44;;;10.86;nan
55456;BME280;63021;52.836;6.376;2024-03-25T09:13:53;100762.41;;;10.81;nan
55456;BME280;63021;52.836;6.376;2024-03-25T09:16:19;100775.81;;;10.89;nan
55456;BME280;63021;52.836;6.376;2024-03-25T09:18:44;100771.06;;;10.83;nan
55456;BME280;63021;52.836;6.376;2024-03-25T09:21:10;100792.81;;;10.78;nan
55456;BME280;63021;52.836;6.376;2024-03-25T09:23:36;100758.34;;;10.77;nan
55456;BME280;63021;52.836;6.376;2024-03-25T09:26:01;100764.97;;;10.72;nan
55456;BME280;63021;52.836;6.376;2024-03-25T09:28:30;100750.44;;;10.67;nan
55456;BME280;63021;52.836;6.376;2024-03-25T09:30:55;100762.00;;;10.57;nan
55456;BME280;63021;52.836;6.376;2024-03-25T09:33:20;100757.53;;;10.48;nan
55456;BME280;63021;52.836;6.376;2024-03-25T09:35:47;100790.03;;;10.52;nan
55456;BME280;63021;52.836;6.376;2024-03-25T09:38:12;100763.56;;;10.50;nan
55456;BME280;63021;52.836;6.376;2024-03-25T09:40:42;100750.53;;;10.47;nan
55456;BME280;63021;52.836;6.376;2024-03-25T09:43:24;100760.31;;;10.56;nan
55456;BME280;63021;52.836;6.376;2024-03-25T09:45:54;100763.63;;;10.58;nan
55456;BME280;63021;52.836;6.376;2024-03-25T09:48:21;100762.06;;;10.66;nan
55456;BME280;63021;52.836;6.376;2024-03-25T09:50:52;100752.72;;;10.62;nan
55456;BME280;63021;52.836;6.376;2024-03-25T09:53:18;100771.88;;;10.65;nan
55456;BME280;63021;52.836;6.376;2024-03-25T09:55:47;100760.34;;;10.47;nan
55456;BME280;63021;52.836;6.376;2024-03-25T09:58:14;100775.34;;;10.48;nan
55456;BME280;63021;52.836;6.376;2024-03-25T10:00:40;100779.88;;;10.37;nan
55456;BME280;63021;52.836;6.376;2024-03-25T10:03:05;100780.03;;;10.26;nan
55456;BME280;63021;52.836;6.376;2024-03-25T10:05:32;100778.94;;;10.19;nan
55456;BME280;63021;52.836;6.376;2024-03-25T10:07:58;100784.00;;;10.12;nan
55456;BME280;63021;52.836;6.376;2024-03-25T10:10:23;100780.38;;;10.13;nan
55456;BME280;63021;52.836;6.376;2024-03-25T10:12:49;100785.97;;;10.10;nan
55456;BME280;63021;52.836;6.376;2024-03-25T10:15:18;100767.38;;;10.00;nan
55456;BME280;63021;52.836;6.376;2024-03-25T10:17:43;100775.03;;;10.13;nan
55456;BME280;63021;52.836;6.376;2024-03-25T10:20:15;100780.06;;;10.16;nan
55456;BME280;63021;52.836;6.376;2024-03-25T10:22:44;100772.09;;;10.16;nan
55456;BME280;63021;52.836;6.376;2024-03-25T10:27:59;100762.69;;;10.22;nan
55456;BME280;63021;52.836;6.376;2024-03-25T10:30:26;100752.56;;;10.35;nan
55456;BME280;63021;52.836;6.376;2024-03-25T10:33:05;100744.72;;;10.34;nan
55456;BME280;63021;52.836;6.376;2024-03-25T10:35:33;100746.53;;;10.43;nan
55456;BME280;63021;52.836;6.376;2024-03-25T10:38:03;100736.25;;;10.48;nan
55456;BME280;63021;52.836;6.376;2024-03-25T10:40:34;100743.41;;;10.66;nan
55456;BME280;63021;52.836;6.376;2024-03-25T10:43:10;100735.84;;;10.71;nan
55456;BME280;63021;52.836;6.376;2024-03-25T10:45:42;100732.41;;;10.79;nan
55456;BME280;63021;52.836;6.376;2024-03-25T10:50:34;100722.25;;;10.92;nan
55456;BME280;63021;52.836;6.376;2024-03-25T10:53:01;100729.44;;;11.00;nan
55456;BME280;63021;52.836;6.376;2024-03-25T10:55:31;100717.97;;;10.99;nan
55456;BME280;63021;52.836;6.376;2024-03-25T10:58:00;100725.75;;;11.11;nan
55456;BME280;63021;52.836;6.376;2024-03-25T11:00:26;100721.16;;;11.03;nan
55456;BME280;63021;52.836;6.376;2024-03-25T11:02:52;100720.25;;;11.12;nan
55456;BME280;63021;52.836;6.376;2024-03-25T11:05:18;100721.47;;;11.18;nan
55456;BME280;63021;52.836;6.376;2024-03-25T11:07:44;100727.22;;;11.31;nan
55456;BME280;63021;52.836;6.376;2024-03-25T11:10:11;100715.63;;;11.40;nan
55456;BME280;63021;52.836;6.376;2024-03-25T11:12:41;100707.78;;;11.39;nan
55456;BME280;63021;52.836;6.376;2024-03-25T11:15:07;100715.53;;;11.50;nan
55456;BME280;63021;52.836;6.376;2024-03-25T11:17:34;100713.72;;;11.51;nan
55456;BME280;63021;52.836;6.376;2024-03-25T11:20:09;100711.72;;;11.53;nan
55456;BME280;63021;52.836;6.376;2024-03-25T11:22:35;100709.38;;;11.50;nan
55456;BME280;63021;52.836;6.376;2024-03-25T11:25:07;100711.56;;;11.54;nan
55456;BME280;63021;52.836;6.376;2024-03-25T11:27:36;100707.75;;;11.57;nan
55456;BME280;63021;52.836;6.376;2024-03-25T11:30:03;100711.66;;;11.71;nan
55456;BME280;63021;52.836;6.376;2024-03-25T11:32:44;100709.34;;;11.76;nan
55456;BME280;63021;52.836;6.376;2024-03-25T11:35:10;100689.59;;;11.87;nan
55456;BME280;63021;52.836;6.376;2024-03-25T11:37:42;100697.31;;;11.98;nan
55456;BME280;63021;52.836;6.376;2024-03-25T11:40:09;100672.94;;;11.93;nan
55456;BME280;63021;52.836;6.376;2024-03-25T11:42:38;100688.84;;;12.03;nan
55456;BME280;63021;52.836;6.376;2024-03-25T11:45:05;100672.25;;;11.91;nan
55456;BME280;63021;52.836;6.376;2024-03-25T11:47:31;100684.13;;;11.96;nan
55456;BME280;63021;52.836;6.376;2024-03-25T11:49:56;100677.75;;;11.89;nan
55456;BME280;63021;52.836;6.376;2024-03-25T11:52:22;100666.03;;;11.82;nan
55456;BME280;63021;52.836;6.376;2024-03-25T11:54:54;100674.25;;;11.89;nan
55456;BME280;63021;52.836;6.376;2024-03-25T11:57:21;100674.09;;;11.90;nan
55456;BME280;63021;52.836;6.376;2024-03-25T11:59:47;100675.31;;;11.96;nan
55456;BME280;63021;52.836;6.376;2024-03-25T12:02:16;100671.84;;;12.04;nan
55456;BME280;63021;52.836;6.376;2024-03-25T12:04:45;100667.22;;;12.14;nan
55456;BME280;63021;52.836;6.376;2024-03-25T12:07:14;100666.72;;;12.19;nan
55456;BME280;63021;52.836;6.376;2024-03-25T12:09:40;100654.25;;;12.27;nan
55456;BME280;63021;52.836;6.376;2024-03-25T12:12:26;100663.78;;;12.30;nan
55456;BME280;63021;52.836;6.376;2024-03-25T12:14:52;100640.22;;;12.25;nan
55456;BME280;63021;52.836;6.376;2024-03-25T12:17:18;100635.75;;;12.34;nan
55456;BME280;63021;52.836;6.376;2024-03-25T12:19:58;100648.13;;;12.52;nan
55456;BME280;63021;52.836;6.376;2024-03-25T12:22:25;100622.75;;;12.47;nan
55456;BME280;63021;52.836;6.376;2024-03-25T12:24:50;100634.28;;;12.56;nan
55456;BME280;63021;52.836;6.376;2024-03-25T12:27:16;100618.91;;;12.42;nan
55456;BME280;63021;52.836;6.376;2024-03-25T12:29:41;100634.25;;;-100.86;nan
55456;BME280;63021;52.836;6.376;2024-03-25T12:32:09;100637.28;;;12.53;nan
55456;BME280;63021;52.836;6.376;2024-03-25T12:34:35;100632.59;;;12.47;nan
55456;BME280;63021;52.836;6.376;2024-03-25T12:37:01;100619.09;;;12.48;nan
55456;BME280;63021;52.836;6.376;2024-03-25T12:39:29;100627.44;;;12.62;nan
55456;BME280;63021;52.836;6.376;2024-03-25T12:41:55;100596.22;;;12.46;nan
55456;BME280;63021;52.836;6.376;2024-03-25T12:44:21;100597.06;;;12.55;nan
55456;BME280;63021;52.836;6.376;2024-03-25T12:46:46;100613.75;;;12.65;nan
55456;BME280;63021;52.836;6.376;2024-03-25T12:49:17;100615.91;;;12.70;nan
55456;BME280;63021;52.836;6.376;2024-03-25T12:51:43;100616.25;;;12.67;nan
55456;BME280;63021;52.836;6.376;2024-03-25T12:54:08;100628.25;;;12.62;nan
55456;BME280;63021;52.836;6.376;2024-03-25T12:56:34;100610.91;;;12.50;nan
55456;BME280;63021;52.836;6.376;2024-03-25T12:58:59;100584.84;;;12.44;nan
55456;BME280;63021;52.836;6.376;2024-03-25T13:01:31;100616.91;;;12.52;nan
55456;BME280;63021;52.836;6.376;2024-03-25T13:03:56;100588.03;;;12.39;nan
55456;BME280;63021;52.836;6.376;2024-03-25T13:06:22;100607.59;;;12.64;nan
55456;BME280;63021;52.836;6.376;2024-03-25T13:09:26;100586.84;;;12.91;nan
55456;BME280;63021;52.836;6.376;2024-03-25T13:11:52;100602.53;;;13.19;nan
55456;BME280;63021;52.836;6.376;2024-03-25T13:14:17;100603.19;;;13.21;nan
55456;BME280;63021;52.836;6.376;2024-03-25T13:16:42;100604.06;;;13.13;nan
55456;BME280;63021;52.836;6.376;2024-03-25T13:19:08;100606.06;;;13.03;nan